Terminal Aerodrome Forecast
Issued by NWS Indianapolis, IN

Home | Current Version | Previous Version | Text Only | Print | Product List | Glossary On
Versions: 1 2 3 4 5 6 7 8 9 10 11 12 13 14 15 16 17 18 19 20 21 22 23 24 25
000
FTUS43 KIND 292300
TAFIND
TAF
KIND 292320Z 3000/3106 22014G22KT P6SM VCSH BKN050
     FM300400 24017G24KT P6SM VCSH SCT025 OVC045
     FM300600 28014KT P6SM SCT025 BKN035
     FM301100 29012KT P6SM SCT250=

USA.gov is the U.S. government's official web portal to all federal, state and local government web resources and services.